Time;durP1;ratioP1;P1;durP2;ratioP2;P2;SDS_P1;SDS_P2;PMS_P1;PMS_P2;Temp;Humidity;BMP_temperature;BMP_pressure;BME280_temperature;BME280_humidity;BME280_pressure;Samples;Min_cycle;Max_cycle;Signal;HPM_P1;HPM_P2
2021/10/27 00:01:06;;;;;;;36.87;4.57;;;12.10;99.90;;;;;;5087833;22;20548;-44
2021/10/27 00:03:33;;;;;;;2.90;2.60;;;12.10;99.90;;;;;;5082312;28;20442;-45
2021/10/27 00:06:09;;;;;;;4.13;3.13;;;12.10;99.90;;;;;;5101933;22;20880;-43
2021/10/27 00:08:40;;;;;;;5.70;3.07;;;12.00;99.90;;;;;;5101894;28;20447;-45
2021/10/27 00:11:09;;;;;;;4.00;3.07;;;12.00;99.90;;;;;;5113260;22;20486;-44
2021/10/27 00:13:37;;;;;;;3.17;2.87;;;12.00;99.90;;;;;;5081620;28;20525;-45
2021/10/27 00:16:06;;;;;;;3.47;2.80;;;12.00;99.90;;;;;;5089214;22;20486;-48
2021/10/27 00:18:33;;;;;;;6.50;3.00;;;12.00;99.90;;;;;;5081408;28;20523;-44
2021/10/27 00:20:59;;;;;;;7.57;2.93;;;11.90;99.90;;;;;;5088446;22;20478;-43
2021/10/27 00:23:26;;;;;;;3.90;2.97;;;12.00;99.90;;;;;;5080916;28;20434;-44
2021/10/27 00:25:56;;;;;;;5.30;2.90;;;11.90;99.90;;;;;;5092307;22;21696;-46
2021/10/27 00:28:23;;;;;;;3.10;2.30;;;12.00;99.90;;;;;;5101546;28;20434;-48
2021/10/27 00:30:50;;;;;;;7.03;3.00;;;12.00;99.90;;;;;;5105243;22;20900;-45
2021/10/27 00:33:17;;;;;;;4.93;2.70;;;12.00;99.90;;;;;;5061252;28;20468;-44
2021/10/27 00:35:44;;;;;;;3.53;3.03;;;12.00;99.90;;;;;;5070375;22;20475;-43
2021/10/27 00:38:13;;;;;;;2.80;2.30;;;12.00;99.90;;;;;;5080057;28;20484;-45
2021/10/27 00:40:39;;;;;;;6.40;3.07;;;12.00;99.90;;;;;;5079107;28;20446;-46
2021/10/27 00:43:06;;;;;;;2.90;2.60;;;12.00;99.90;;;;;;5104137;22;20497;-41
2021/10/27 00:45:33;;;;;;;3.93;2.73;;;12.00;99.90;;;;;;5099085;28;20506;-45
2021/10/27 00:48:01;;;;;;;9.50;2.70;;;12.00;99.90;;;;;;5089533;22;20482;-44
2021/10/27 00:50:28;;;;;;;6.83;3.57;;;11.90;99.90;;;;;;5079466;28;20495;-45
2021/10/27 00:52:55;;;;;;;4.17;2.77;;;12.00;99.90;;;;;;5088013;22;20494;-46
2021/10/27 00:55:24;;;;;;;8.10;2.77;;;12.00;99.90;;;;;;5080728;28;20754;-47
2021/10/27 00:57:52;;;;;;;3.77;3.10;;;11.90;99.90;;;;;;5100137;22;20484;-44
2021/10/27 01:00:19;;;;;;;7.53;3.10;;;11.90;99.90;;;;;;5101295;28;20446;-43
2021/10/27 01:02:46;;;;;;;4.50;2.70;;;11.90;99.90;;;;;;5098653;22;20547;-43
2021/10/27 01:05:15;;;;;;;3.90;3.37;;;11.90;99.90;;;;;;5079552;28;20449;-44
2021/10/27 01:10:13;;;;;;;5.33;3.20;;;11.90;99.90;;;;;;5085156;22;20485;-44
2021/10/27 01:12:42;;;;;;;4.63;2.70;;;12.00;99.90;;;;;;5080449;28;20449;-45
2021/10/27 01:15:11;;;;;;;4.57;3.20;;;11.90;99.90;;;;;;5105481;22;20490;-49
2021/10/27 01:17:43;;;;;;;6.13;3.33;;;11.90;99.90;;;;;;5100547;28;20461;-44
2021/10/27 01:20:12;;;;;;;4.93;2.83;;;11.90;99.90;;;;;;5091231;22;20508;-46
2021/10/27 01:22:40;;;;;;;4.10;3.40;;;11.90;99.90;;;;;;5079612;28;20462;-45
2021/10/27 01:25:10;;;;;;;3.70;2.73;;;11.90;99.90;;;;;;5086557;22;20560;-46
2021/10/27 01:27:40;;;;;;;5.53;3.03;;;11.90;99.90;;;;;;5080032;28;20822;-49
2021/10/27 01:30:11;;;;;;;5.70;3.67;;;11.90;99.90;;;;;;5116661;22;20489;-47
2021/10/27 01:32:38;;;;;;;5.30;3.70;;;11.90;99.90;;;;;;5100153;28;20446;-44
2021/10/27 01:35:06;;;;;;;3.20;2.43;;;11.90;99.90;;;;;;5096168;22;20498;-47
2021/10/27 01:37:35;;;;;;;4.50;3.47;;;11.80;99.90;;;;;;5079843;28;20463;-47
2021/10/27 01:40:17;;;;;;;5.17;2.93;;;11.80;99.90;;;;;;5087913;22;20512;-45
2021/10/27 01:42:44;;;;;;;6.43;3.23;;;11.90;99.90;;;;;;5080807;28;20466;-47
2021/10/27 01:45:12;;;;;;;3.70;2.90;;;11.90;99.90;;;;;;5080128;22;20487;-45
2021/10/27 01:47:42;;;;;;;3.70;3.00;;;11.90;99.90;;;;;;5059501;28;20857;-44
2021/10/27 01:50:10;;;;;;;10.73;4.23;;;11.80;99.90;;;;;;5074463;22;20485;-47
2021/10/27 01:52:40;;;;;;;3.23;2.93;;;11.90;99.90;;;;;;5079687;28;20911;-45
2021/10/27 01:55:11;;;;;;;12.63;3.43;;;11.90;99.90;;;;;;5087070;22;20603;-46
2021/10/27 01:57:37;;;;;;;5.03;3.63;;;11.90;99.90;;;;;;5080195;28;20430;-46
2021/10/27 02:00:05;;;;;;;7.97;3.23;;;11.90;99.90;;;;;;5089682;22;21166;-44
2021/10/27 02:02:32;;;;;;;4.67;3.63;;;11.90;99.90;;;;;;5099824;28;20426;-46
2021/10/27 02:05:16;;;;;;;2.90;2.53;;;11.90;99.90;;;;;;5143361;22;20462;-46
2021/10/27 02:07:44;;;;;;;6.90;4.00;;;11.90;99.90;;;;;;5061402;28;20447;-52
2021/10/27 02:10:15;;;;;;;4.90;3.50;;;11.90;99.90;;;;;;5088308;22;20475;-49
2021/10/27 02:12:43;;;;;;;5.60;3.47;;;11.90;99.90;;;;;;5081339;28;20458;-47
2021/10/27 02:15:11;;;;;;;4.77;3.03;;;11.90;99.90;;;;;;5082627;28;20500;-48
2021/10/27 02:17:38;;;;;;;7.97;4.13;;;12.00;99.90;;;;;;5094458;22;20486;-49
2021/10/27 02:20:07;;;;;;;4.30;3.33;;;12.00;99.90;;;;;;5086587;28;20438;-47
2021/10/27 02:22:34;;;;;;;4.90;3.33;;;12.00;99.90;;;;;;5110608;22;20617;-52
2021/10/27 02:25:04;;;;;;;6.47;3.07;;;12.00;99.90;;;;;;5106719;28;20438;-51
2021/10/27 02:27:31;;;;;;;6.27;3.23;;;12.00;99.90;;;;;;5115376;22;20536;-49
2021/10/27 02:29:57;;;;;;;5.10;3.53;;;12.00;99.90;;;;;;5086622;28;20461;-50
2021/10/27 02:32:24;;;;;;;4.73;4.13;;;12.00;99.90;;;;;;5094347;22;20497;-51
2021/10/27 02:34:50;;;;;;;4.03;2.70;;;12.00;99.90;;;;;;5086825;28;20489;-53
2021/10/27 02:37:17;;;;;;;4.77;3.20;;;12.00;99.90;;;;;;5093963;22;20494;-48
2021/10/27 02:39:44;;;;;;;5.30;4.17;;;11.90;99.90;;;;;;5087515;28;20472;-46
2021/10/27 02:42:12;;;;;;;7.17;4.00;;;11.90;99.90;;;;;;5100891;22;20573;-50
2021/10/27 02:44:38;;;;;;;5.20;3.43;;;11.90;99.90;;;;;;5105599;28;20461;-53
2021/10/27 02:47:05;;;;;;;5.20;3.80;;;12.00;99.90;;;;;;5108027;22;20489;-51
2021/10/27 02:49:32;;;;;;;5.97;3.60;;;12.00;99.90;;;;;;5085664;28;20496;-52
2021/10/27 02:52:08;;;;;;;11.13;2.70;;;12.00;99.90;;;;;;5093597;22;20457;-51
2021/10/27 02:54:34;;;;;;;10.63;3.60;;;12.00;99.90;;;;;;5085744;28;20490;-50
2021/10/27 02:57:01;;;;;;;4.83;3.70;;;12.00;99.90;;;;;;5092541;22;20445;-50
2021/10/27 02:59:32;;;;;;;9.73;3.67;;;12.10;99.90;;;;;;5109550;22;20500;-48
2021/10/27 03:02:01;;;;;;;4.10;3.70;;;12.00;99.90;;;;;;5106646;28;20437;-47
2021/10/27 03:04:27;;;;;;;5.53;4.33;;;12.00;99.90;;;;;;5118505;22;20555;-50
2021/10/27 03:06:54;;;;;;;5.20;4.07;;;12.00;99.90;;;;;;5085820;28;20466;-52
2021/10/27 03:09:21;;;;;;;8.43;4.10;;;12.00;99.90;;;;;;5099413;22;20514;-49
2021/10/27 03:11:47;;;;;;;5.10;3.77;;;12.00;99.90;;;;;;5066208;28;20467;-52
2021/10/27 03:16:52;;;;;;;6.60;3.43;;;12.00;99.90;;;;;;5090944;22;20470;-52
2021/10/27 03:19:18;;;;;;;7.10;3.40;;;12.00;99.90;;;;;;5085631;28;20465;-46
2021/10/27 03:21:50;;;;;;;5.57;3.83;;;12.00;99.90;;;;;;5059619;22;20806;-47
2021/10/27 03:24:17;;;;;;;7.83;3.90;;;12.00;99.90;;;;;;5045607;28;20429;-50
2021/10/27 03:26:43;;;;;;;4.80;3.33;;;12.00;99.90;;;;;;5068851;22;20560;-50
2021/10/27 03:29:10;;;;;;;7.40;3.93;;;12.10;99.90;;;;;;5064712;28;20944;-44
2021/10/27 03:31:37;;;;;;;8.47;4.53;;;12.10;99.90;;;;;;5102418;22;20834;-47
2021/10/27 03:34:05;;;;;;;7.00;4.30;;;12.10;99.90;;;;;;5084916;28;20486;-49
2021/10/27 03:36:44;;;;;;;9.03;4.00;;;12.10;99.90;;;;;;5092434;22;20982;-49
2021/10/27 03:39:11;;;;;;;3.47;2.77;;;12.10;99.90;;;;;;5082197;28;20473;-51
2021/10/27 03:41:38;;;;;;;7.13;4.80;;;12.00;99.90;;;;;;5126086;22;20551;-49
2021/10/27 03:44:05;;;;;;;4.30;3.70;;;12.00;99.90;;;;;;5084751;28;20442;-49
2021/10/27 03:46:36;;;;;;;4.43;3.57;;;12.00;99.90;;;;;;5092591;22;20491;-50
2021/10/27 03:49:02;;;;;;;8.10;4.30;;;12.00;99.90;;;;;;5085236;28;20457;-52
2021/10/27 03:51:31;;;;;;;7.60;3.97;;;12.00;99.90;;;;;;5087018;22;20501;-50
2021/10/27 03:53:58;;;;;;;8.40;4.27;;;12.00;99.90;;;;;;5064487;28;20455;-49
2021/10/27 03:56:35;;;;;;;6.30;4.20;;;11.90;99.90;;;;;;5091653;22;20493;-51
2021/10/27 03:59:02;;;;;;;8.37;4.30;;;11.90;99.90;;;;;;5083706;28;20458;-52
2021/10/27 04:01:29;;;;;;;7.80;4.13;;;11.90;99.90;;;;;;5091014;22;20470;-51
2021/10/27 04:03:55;;;;;;;3.57;3.23;;;11.90;99.90;;;;;;5084258;28;20427;-52
2021/10/27 04:09:01;;;;;;;4.90;4.13;;;11.90;99.90;;;;;;5089492;22;21180;-47
2021/10/27 04:13:57;;;;;;;7.00;4.13;;;11.90;99.90;;;;;;5070795;22;20493;-52
2021/10/27 04:16:24;;;;;;;6.30;4.30;;;11.90;99.90;;;;;;5064313;28;20473;-54
2021/10/27 04:18:50;;;;;;;4.60;3.60;;;11.80;99.90;;;;;;5107703;22;20594;-53
2021/10/27 04:21:17;;;;;;;5.50;3.90;;;11.80;99.90;;;;;;5104988;28;20621;-47
2021/10/27 04:23:44;;;;;;;12.73;5.40;;;11.80;99.90;;;;;;5096885;22;20492;-48
2021/10/27 04:26:12;;;;;;;5.17;4.23;;;11.80;99.90;;;;;;5084924;28;20450;-47
2021/10/27 04:28:38;;;;;;;7.23;4.83;;;11.80;99.90;;;;;;5092408;22;20482;-50
2021/10/27 04:31:05;;;;;;;7.07;3.80;;;11.80;99.90;;;;;;5084645;28;20430;-49
2021/10/27 04:33:32;;;;;;;9.87;5.20;;;11.80;99.90;;;;;;5106659;22;20509;-52
2021/10/27 04:36:02;;;;;;;7.70;4.30;;;11.80;99.90;;;;;;5082796;28;20518;-46
2021/10/27 04:38:29;;;;;;;15.07;5.03;;;11.80;99.90;;;;;;5091210;22;20498;-48
2021/10/27 04:40:56;;;;;;;5.10;3.90;;;11.80;99.90;;;;;;5083367;28;20466;-52
2021/10/27 04:43:30;;;;;;;11.40;4.07;;;11.80;99.90;;;;;;5090138;22;20551;-53
2021/10/27 04:45:56;;;;;;;7.47;4.93;;;11.80;99.90;;;;;;5082957;28;20462;-49
2021/10/27 04:48:23;;;;;;;6.90;4.60;;;11.80;99.90;;;;;;5090038;22;21044;-48
2021/10/27 04:50:50;;;;;;;4.73;3.33;;;11.80;99.90;;;;;;5083091;28;20443;-51
2021/10/27 04:53:18;;;;;;;4.83;3.50;;;11.80;99.90;;;;;;5090986;22;20468;-49
2021/10/27 04:55:51;;;;;;;7.37;4.60;;;11.80;99.90;;;;;;5077155;22;20932;-48
2021/10/27 04:58:18;;;;;;;6.07;4.83;;;11.80;99.90;;;;;;5063484;28;20419;-46
2021/10/27 05:00:59;;;;;;;4.07;2.90;;;11.80;99.90;;;;;;5062805;28;20471;-48
2021/10/27 05:03:26;;;;;;;6.57;4.10;;;11.80;99.90;;;;;;5063202;28;20495;-50
2021/10/27 05:05:54;;;;;;;7.50;3.90;;;11.90;99.90;;;;;;5062968;28;20469;-51
2021/10/27 05:08:22;;;;;;;4.80;3.57;;;11.90;99.90;;;;;;5064160;28;20475;-52
2021/10/27 05:10:49;;;;;;;10.67;4.60;;;11.90;99.90;;;;;;5063667;28;20460;-52
2021/10/27 05:13:16;;;;;;;6.00;4.13;;;11.80;99.90;;;;;;5062944;28;20467;-49
2021/10/27 05:15:43;;;;;;;8.60;3.80;;;11.90;99.90;;;;;;5063615;28;20473;-51
2021/10/27 05:18:11;;;;;;;5.40;3.20;;;11.80;99.90;;;;;;5062712;28;20528;-52
2021/10/27 05:20:38;;;;;;;7.70;3.53;;;11.90;99.90;;;;;;5063307;28;20757;-50
2021/10/27 05:23:04;;;;;;;5.63;3.30;;;11.80;99.90;;;;;;5063642;28;20904;-47
2021/10/27 05:25:31;;;;;;;7.00;3.77;;;11.90;99.90;;;;;;5064286;28;20464;-53
2021/10/27 05:27:58;;;;;;;5.47;3.67;;;11.90;99.90;;;;;;5062745;28;20439;-49
2021/10/27 05:30:24;;;;;;;4.83;3.23;;;11.90;99.90;;;;;;5062748;28;20524;-53
2021/10/27 05:32:56;;;;;;;9.27;4.50;;;11.90;99.90;;;;;;5063216;28;20538;-48
2021/10/27 05:35:24;;;;;;;4.93;3.57;;;11.90;99.90;;;;;;5062639;28;20507;-51
2021/10/27 05:37:51;;;;;;;6.43;4.03;;;11.90;99.90;;;;;;5063537;28;20443;-46
2021/10/27 05:40:18;;;;;;;8.57;3.37;;;11.90;99.90;;;;;;5062906;28;20443;-49
2021/10/27 05:42:46;;;;;;;7.53;3.30;;;11.90;99.90;;;;;;5062870;28;20803;-46
2021/10/27 05:45:13;;;;;;;5.83;3.40;;;11.90;99.90;;;;;;5062595;28;21019;-47
2021/10/27 05:47:44;;;;;;;4.30;3.10;;;11.90;99.90;;;;;;5062302;28;20479;-52
2021/10/27 05:50:34;;;;;;;4.13;2.80;;;11.90;99.90;;;;;;5081518;22;20796;-53
2021/10/27 05:55:47;;;;;;;5.90;3.47;;;11.90;99.90;;;;;;5106690;22;20559;-49
2021/10/27 05:58:16;;;;;;;5.10;3.13;;;11.90;99.90;;;;;;5083144;28;20470;-47
2021/10/27 06:00:43;;;;;;;10.13;4.07;;;12.00;99.90;;;;;;5117355;22;20515;-48
2021/10/27 06:03:10;;;;;;;5.20;3.37;;;12.00;99.90;;;;;;5102720;28;20473;-52
2021/10/27 06:05:37;;;;;;;6.00;4.17;;;12.00;99.90;;;;;;5101968;22;20523;-50
2021/10/27 06:08:09;;;;;;;8.47;3.43;;;12.00;99.90;;;;;;5083359;28;20449;-46
2021/10/27 06:10:36;;;;;;;7.77;3.60;;;12.00;99.90;;;;;;5090727;22;20512;-50
2021/10/27 06:13:06;;;;;;;7.67;3.30;;;12.00;99.90;;;;;;5079613;28;20453;-47
2021/10/27 06:15:34;;;;;;;3.53;3.03;;;12.00;99.90;;;;;;5089409;22;20564;-52
2021/10/27 06:18:01;;;;;;;5.53;2.83;;;12.10;99.90;;;;;;5062149;28;20443;-50
2021/10/27 06:20:28;;;;;;;6.20;3.20;;;12.10;99.90;;;;;;5059086;22;20438;-52
2021/10/27 06:22:56;;;;;;;3.50;3.20;;;12.10;99.90;;;;;;5066416;28;20500;-52
2021/10/27 06:28:01;;;;;;;5.70;3.50;;;12.20;99.90;;;;;;5105789;22;20477;-49
2021/10/27 06:33:02;;;;;;;7.07;3.10;;;12.30;99.90;;;;;;5087568;22;20486;-46
2021/10/27 06:35:31;;;;;;;4.60;2.87;;;12.30;99.90;;;;;;5081650;28;20533;-50
2021/10/27 06:38:15;;;;;;;2.70;2.40;;;12.40;99.90;;;;;;5089561;22;20505;-52
2021/10/27 06:46:27;;;;;;;7.50;2.67;;;12.40;99.90;;;;;;5083247;22;20438;-50
2021/10/27 06:48:54;;;;;;;4.67;2.73;;;12.40;99.90;;;;;;5060850;28;20511;-51
2021/10/27 06:53:53;;;;;;;4.50;2.87;;;12.40;99.90;;;;;;5060409;28;20490;-50
2021/10/27 06:56:22;;;;;;;5.10;3.00;;;12.40;99.90;;;;;;5061428;28;20482;-49
2021/10/27 06:58:59;;;;;;;6.93;4.70;;;12.50;99.90;;;;;;5087599;22;20494;-47
2021/10/27 07:01:33;;;;;;;4.23;2.80;;;12.50;99.90;;;;;;5081637;28;20456;-51
2021/10/27 07:04:27;;;;;;;6.67;3.27;;;12.70;99.90;;;;;;5092203;22;20493;-49
2021/10/27 07:07:08;;;;;;;3.10;2.70;;;12.90;99.90;;;;;;5089754;22;20439;-51
2021/10/27 07:15:05;;;;;;;4.87;2.57;;;12.80;99.90;;;;;;5073442;22;20470;-49
2021/10/27 07:17:33;;;;;;;15.07;5.70;;;12.70;99.90;;;;;;5081285;28;20503;-44
2021/10/27 07:20:01;;;;;;;7.03;3.70;;;12.70;99.90;;;;;;5103190;22;20489;-48
2021/10/27 07:22:28;;;;;;;13.10;7.63;;;12.70;99.90;;;;;;5101118;28;20442;-48
2021/10/27 07:24:54;;;;;;;31.37;14.63;;;12.70;99.90;;;;;;5096024;22;20489;-49
2021/10/27 07:27:21;;;;;;;17.57;7.53;;;12.70;99.90;;;;;;5080725;28;20455;-50
2021/10/27 07:29:48;;;;;;;9.77;2.93;;;12.80;99.90;;;;;;5098324;22;20497;-49
2021/10/27 07:32:18;;;;;;;6.53;2.87;;;12.70;99.90;;;;;;5100838;28;20449;-49
2021/10/27 07:34:49;;;;;;;4.13;2.30;;;12.70;99.90;;;;;;5092322;22;20491;-51
2021/10/27 07:42:49;;;;;;;4.43;2.93;;;12.70;99.90;;;;;;5093179;28;20902;-49
2021/10/27 07:45:15;;;;;;;7.40;4.10;;;12.80;99.90;;;;;;5108131;22;20532;-51
2021/10/27 07:47:43;;;;;;;4.87;3.13;;;12.80;99.90;;;;;;5080826;28;20458;-51
2021/10/27 07:50:10;;;;;;;8.07;2.97;;;12.90;99.90;;;;;;5094644;22;20485;-46
2021/10/27 07:52:37;;;;;;;5.67;3.77;;;13.00;99.90;;;;;;5097896;28;20886;-49
2021/10/27 07:55:04;;;;;;;5.70;3.67;;;13.10;99.90;;;;;;5101720;22;20857;-48
2021/10/27 07:57:31;;;;;;;9.73;3.70;;;13.20;99.90;;;;;;5078139;28;20508;-46
2021/10/27 08:00:02;;;;;;;4.10;3.00;;;13.40;99.90;;;;;;5087127;22;20817;-48
2021/10/27 08:02:29;;;;;;;5.07;3.00;;;13.40;99.90;;;;;;5099044;28;20457;-48
2021/10/27 08:07:31;;;;;;;3.77;2.90;;;13.50;99.90;;;;;;5085376;22;20565;-50
2021/10/27 08:09:58;;;;;;;4.63;2.93;;;13.50;99.90;;;;;;5079460;28;20450;-48
2021/10/27 08:12:25;;;;;;;2.93;2.63;;;13.50;99.90;;;;;;5103372;22;20513;-46
2021/10/27 08:14:52;;;;;;;7.37;3.20;;;13.50;99.90;;;;;;5096044;28;20449;-52
2021/10/27 08:17:19;;;;;;;5.03;2.77;;;13.50;99.90;;;;;;5089959;22;20497;-50
2021/10/27 08:19:48;;;;;;;10.90;3.23;;;13.40;99.90;;;;;;5078882;28;20515;-51
2021/10/27 08:22:15;;;;;;;4.60;2.50;;;13.50;99.90;;;;;;5100626;22;20482;-47
2021/10/27 08:24:43;;;;;;;6.13;3.17;;;13.60;99.90;;;;;;5099831;28;20762;-47
2021/10/27 08:27:12;;;;;;;3.20;2.57;;;13.60;99.90;;;;;;5096230;22;20487;-46
2021/10/27 08:29:40;;;;;;;4.23;2.67;;;13.60;99.90;;;;;;5078887;28;20451;-47
2021/10/27 08:32:15;;;;;;;4.97;2.57;;;13.70;99.90;;;;;;5095166;22;20478;-49
2021/10/27 08:34:47;;;;;;;6.30;3.50;;;13.70;99.90;;;;;;5099202;28;20441;-50
2021/10/27 08:37:14;;;;;;;6.43;2.93;;;13.70;99.90;;;;;;5099012;22;20975;-50
2021/10/27 08:39:42;;;;;;;3.70;2.90;;;13.70;99.90;;;;;;5079545;28;20475;-54
2021/10/27 08:42:09;;;;;;;4.00;2.60;;;13.70;99.90;;;;;;5106590;22;20581;-46
2021/10/27 08:44:36;;;;;;;3.17;2.57;;;13.90;99.90;;;;;;5079113;28;20462;-52
2021/10/27 08:47:04;;;;;;;2.97;2.50;;;14.00;99.90;;;;;;5089705;22;20880;-52
2021/10/27 08:49:32;;;;;;;3.43;2.43;;;14.00;99.90;;;;;;5098573;28;20469;-49
2021/10/27 08:51:59;;;;;;;5.10;2.50;;;14.10;99.90;;;;;;5104854;22;20906;-51
2021/10/27 08:54:27;;;;;;;4.03;2.13;;;14.10;99.90;;;;;;5078271;28;20875;-55
2021/10/27 08:59:42;;;;;;;4.70;2.20;;;14.30;99.90;;;;;;5103641;22;20481;-52
2021/10/27 09:04:54;;;;;;;6.70;3.17;;;14.50;99.90;;;;;;5079200;22;20551;-49
2021/10/27 09:07:27;;;;;;;3.40;2.27;;;14.60;99.90;;;;;;5088286;22;20196;-44
2021/10/27 09:10:06;;;;;;;3.90;2.50;;;14.90;99.90;;;;;;5096769;22;20499;-50
2021/10/27 09:15:41;;;;;;;6.00;2.70;;;15.30;99.90;;;;;;5091147;22;20493;-50
2021/10/27 09:35:00;;;;;;;7.03;3.33;;;15.50;99.90;;;;;;5085598;22;20493;-51
2021/10/27 09:38:00;;;;;;;4.43;2.60;;;15.80;99.90;;;;;;5077292;28;20527;-52
2021/10/27 09:46:36;;;;;;;3.27;2.20;;;17.40;99.90;;;;;;5093184;22;20536;-52
2021/10/27 10:05:39;;;;;;;3.70;2.20;;;16.20;99.90;;;;;;5076635;28;20410;-49
2021/10/27 10:08:07;;;;;;;3.73;2.60;;;16.10;99.90;;;;;;5098422;22;20495;-50
2021/10/27 10:10:34;;;;;;;7.90;2.83;;;16.00;99.90;;;;;;5098038;28;20893;-47
2021/10/27 10:13:02;;;;;;;3.83;2.47;;;16.00;99.90;;;;;;5093718;22;20547;-46
2021/10/27 10:15:37;;;;;;;4.47;3.10;;;16.00;99.90;;;;;;5093791;22;20488;-50
2021/10/27 10:18:07;;;;;;;3.50;2.17;;;15.90;99.90;;;;;;5095296;22;20965;-48
2021/10/27 10:20:36;;;;;;;5.37;2.80;;;15.80;99.90;;;;;;5076702;28;20458;-47
2021/10/27 10:23:22;;;;;;;4.03;2.40;;;15.70;99.90;;;;;;5093261;22;20558;-51
2021/10/27 10:25:51;;;;;;;8.20;2.83;;;15.70;99.90;;;;;;5097934;28;20452;-49
2021/10/27 10:28:20;;;;;;;3.97;2.43;;;15.60;99.90;;;;;;5097316;22;20568;-49
2021/10/27 10:30:54;;;;;;;2.80;2.30;;;15.60;99.90;;;;;;5077416;28;20453;-51
2021/10/27 10:33:36;;;;;;;3.43;1.97;;;15.50;99.90;;;;;;5091797;22;20573;-49
2021/10/27 10:36:06;;;;;;;1.93;1.83;;;15.50;99.90;;;;;;5087065;28;20466;-47
2021/10/27 10:41:47;;;;;;;2.93;2.17;;;15.50;99.90;;;;;;5066402;28;20516;-51
2021/10/27 10:44:34;;;;;;;10.43;2.67;;;15.50;99.90;;;;;;5082352;22;20489;-46
2021/10/27 11:37:36;;;;;;;2.70;2.10;;;15.40;99.90;;;;;;5097087;22;20500;-51
2021/10/27 11:40:09;;;;;;;3.63;2.40;;;15.40;99.90;;;;;;5075905;28;20431;-51
2021/10/27 11:42:49;;;;;;;2.63;2.03;;;15.40;99.90;;;;;;5086729;22;20482;-51
2021/10/27 11:45:38;;;;;;;4.93;2.47;;;15.40;99.90;;;;;;5071705;28;20467;-49
2021/10/27 11:48:18;;;;;;;4.40;2.70;;;15.30;99.90;;;;;;5080414;22;21014;-52
2021/10/27 11:50:50;;;;;;;3.97;2.30;;;15.30;99.90;;;;;;5076328;28;20756;-51
2021/10/27 11:53:19;;;;;;;6.00;2.43;;;15.30;99.90;;;;;;5083954;22;21060;-48
2021/10/27 11:55:49;;;;;;;3.00;2.63;;;15.30;99.90;;;;;;5061112;28;20971;-49
2021/10/27 11:58:16;;;;;;;4.53;2.33;;;15.30;99.90;;;;;;5076288;22;20494;-51
2021/10/27 12:00:45;;;;;;;2.90;2.60;;;15.30;99.90;;;;;;5081288;28;20488;-48
2021/10/27 12:03:20;;;;;;;4.80;4.40;;;15.30;99.90;;;;;;5088785;22;20486;-49
2021/10/27 12:05:52;;;;;;;6.50;2.50;;;15.30;99.90;;;;;;5073699;28;20435;-46
2021/10/27 12:11:29;;;;;;;4.00;2.13;;;15.30;99.90;;;;;;5072104;28;20541;-50
2021/10/27 12:21:48;;;;;;;6.20;2.57;;;15.30;99.90;;;;;;5309143;22;20502;-46
2021/10/27 12:24:17;;;;;;;5.03;2.73;;;15.30;99.90;;;;;;5046292;22;20488;-53
2021/10/27 12:26:46;;;;;;;4.63;2.33;;;15.40;99.90;;;;;;5038368;28;20475;-49
2021/10/27 12:29:15;;;;;;;4.20;2.80;;;15.40;99.90;;;;;;5043749;22;20499;-53
2021/10/27 12:32:03;;;;;;;4.83;2.43;;;15.30;99.90;;;;;;5200494;22;21437;-46
2021/10/27 12:42:17;;;;;;;3.20;2.77;;;15.30;99.90;;;;;;5417285;23;20492;-51
2021/10/27 12:44:47;;;;;;;4.80;1.60;;;15.30;99.90;;;;;;5080018;22;20479;-49
2021/10/27 12:47:17;;;;;;;3.50;2.30;;;15.30;99.90;;;;;;5012271;28;20447;-51
2021/10/27 12:52:27;;;;;;;4.80;3.07;;;15.30;99.90;;;;;;5059198;22;20478;-51
2021/10/27 12:57:45;;;;;;;3.07;1.93;;;15.30;99.90;;;;;;5042714;22;20479;-47
2021/10/27 13:00:14;;;;;;;4.23;2.03;;;15.30;99.90;;;;;;5037587;28;20523;-48
2021/10/27 13:02:48;;;;;;;6.80;2.50;;;15.30;99.90;;;;;;5038800;28;20444;-52
2021/10/27 13:05:39;;;;;;;5.27;2.93;;;15.30;99.90;;;;;;5040480;28;20436;-51
2021/10/27 13:08:20;;;;;;;9.33;5.73;;;15.30;99.90;;;;;;5040088;28;20440;-47
2021/10/27 13:10:50;;;;;;;6.47;4.90;;;15.40;99.90;;;;;;5039246;28;20509;-50
2021/10/27 13:13:27;;;;;;;3.50;2.37;;;15.40;99.90;;;;;;5037669;28;20464;-47
2021/10/27 13:18:54;;;;;;;3.60;1.90;;;15.40;99.90;;;;;;5035000;28;20546;-48
2021/10/27 13:29:53;;;;;;;4.87;2.60;;;15.40;99.90;;;;;;5037962;28;20436;-48
2021/10/27 13:32:21;;;;;;;5.53;1.93;;;15.30;99.90;;;;;;5037655;28;20455;-49
2021/10/27 13:34:49;;;;;;;3.90;1.90;;;15.30;99.90;;;;;;5038303;28;20440;-51
2021/10/27 13:37:18;;;;;;;8.23;2.33;;;15.30;99.90;;;;;;5037848;28;20598;-47
2021/10/27 13:39:45;;;;;;;5.03;2.37;;;15.30;99.90;;;;;;5037702;28;20468;-52
2021/10/27 13:42:17;;;;;;;7.20;2.70;;;15.30;99.90;;;;;;5038551;28;20547;-50
2021/10/27 13:44:56;;;;;;;2.97;2.43;;;15.30;99.90;;;;;;5037317;28;20546;-48
2021/10/27 13:47:33;;;;;;;7.53;3.00;;;15.30;99.90;;;;;;5037079;28;20901;-48
2021/10/27 13:58:43;;;;;;;2.73;2.13;;;15.20;99.90;;;;;;4995692;28;20854;-49
2021/10/27 14:06:41;;;;;;;4.40;2.37;;;15.20;99.90;;;;;;5037257;28;20451;-45
2021/10/27 14:09:14;;;;;;;5.03;2.53;;;15.20;99.90;;;;;;5037674;28;20428;-50
2021/10/27 14:11:53;;;;;;;3.10;2.60;;;15.20;99.90;;;;;;5038174;28;20478;-50
2021/10/27 14:14:23;;;;;;;3.33;1.70;;;15.20;99.90;;;;;;5041117;28;20532;-48
2021/10/27 14:17:09;;;;;;;2.90;2.60;;;15.30;99.90;;;;;;5040807;28;21035;-49
2021/10/27 15:20:27;;;;;;;3.30;2.90;;;15.10;99.90;;;;;;4979218;28;20914;-49
2021/10/27 15:23:03;;;;;;;14.23;3.20;;;15.10;99.90;;;;;;5026719;28;20447;-48
2021/10/27 15:25:45;;;;;;;3.07;2.33;;;15.10;99.90;;;;;;5039779;28;20986;-49
2021/10/27 15:28:36;;;;;;;4.47;2.73;;;15.10;99.90;;;;;;5039826;28;20917;-50
2021/10/27 15:31:19;;;;;;;10.20;2.67;;;15.10;99.90;;;;;;5039796;28;20436;-51
2021/10/27 15:34:02;;;;;;;3.30;2.50;;;15.10;99.90;;;;;;5040034;28;20425;-51
2021/10/27 15:36:43;;;;;;;3.70;2.83;;;15.10;99.90;;;;;;5039788;28;20456;-54
2021/10/27 15:42:08;;;;;;;4.23;3.10;;;15.10;99.90;;;;;;5039466;28;20416;-51
2021/10/27 15:44:42;;;;;;;4.27;2.73;;;15.10;99.90;;;;;;5038985;28;20480;-54
2021/10/27 15:52:39;;;;;;;7.10;3.37;;;15.10;99.90;;;;;;5039857;28;20508;-48
2021/10/27 15:55:08;;;;;;;4.37;2.93;;;15.10;99.90;;;;;;5039674;28;20937;-48
2021/10/27 15:57:36;;;;;;;5.77;3.40;;;15.10;99.90;;;;;;5038857;28;20476;-51
2021/10/27 16:00:05;;;;;;;4.63;3.50;;;15.10;99.90;;;;;;5039453;28;20444;-52
2021/10/27 16:02:33;;;;;;;8.83;4.30;;;15.10;99.90;;;;;;5038742;28;20476;-45
2021/10/27 16:05:00;;;;;;;7.73;3.67;;;15.10;99.90;;;;;;5038825;28;20527;-49
2021/10/27 16:07:31;;;;;;;7.77;4.53;;;15.10;99.90;;;;;;5038825;28;20447;-51
2021/10/27 16:10:03;;;;;;;7.03;4.87;;;15.10;99.90;;;;;;5038744;28;20459;-50
2021/10/27 16:12:30;;;;;;;9.97;4.60;;;15.10;99.90;;;;;;5039060;28;20471;-50
2021/10/27 16:15:00;;;;;;;9.00;4.67;;;15.10;99.90;;;;;;5039266;28;20976;-51
2021/10/27 16:17:27;;;;;;;9.43;4.63;;;15.10;99.90;;;;;;5039246;28;20562;-52
2021/10/27 16:19:55;;;;;;;5.47;3.83;;;15.10;99.90;;;;;;5039014;28;20463;-50
2021/10/27 16:22:23;;;;;;;7.33;4.33;;;15.10;99.90;;;;;;5039776;28;20525;-53
2021/10/27 16:24:50;;;;;;;5.27;3.13;;;15.10;99.90;;;;;;5039055;28;20968;-52
2021/10/27 16:27:17;;;;;;;6.77;4.03;;;15.10;99.90;;;;;;5039169;28;20525;-50
2021/10/27 16:29:43;;;;;;;6.80;3.93;;;15.10;99.90;;;;;;5038804;28;20448;-52
2021/10/27 16:32:12;;;;;;;6.10;4.20;;;15.10;99.90;;;;;;5039187;28;20468;-49
2021/10/27 16:34:39;;;;;;;7.60;4.20;;;15.10;99.90;;;;;;5038769;28;20448;-51
2021/10/27 16:37:06;;;;;;;5.83;4.17;;;15.10;99.90;;;;;;5038306;28;20458;-45
2021/10/27 16:39:33;;;;;;;8.17;4.50;;;15.10;99.90;;;;;;5038166;28;20522;-49
2021/10/27 16:42:00;;;;;;;13.67;6.03;;;15.10;99.90;;;;;;5038444;28;20837;-48
2021/10/27 16:44:27;;;;;;;7.87;3.90;;;15.00;99.90;;;;;;5037949;28;20495;-48
2021/10/27 16:46:54;;;;;;;7.40;4.20;;;15.00;99.90;;;;;;5038457;28;20527;-48
2021/10/27 16:49:22;;;;;;;4.97;4.07;;;15.00;99.90;;;;;;5037798;28;20454;-51
2021/10/27 16:51:50;;;;;;;14.00;4.90;;;15.00;99.90;;;;;;5037923;28;20509;-48
2021/10/27 16:54:19;;;;;;;6.13;3.63;;;15.00;99.90;;;;;;5037798;28;20448;-49
2021/10/27 16:56:47;;;;;;;6.20;4.33;;;15.00;99.90;;;;;;5037387;28;20476;-53
2021/10/27 16:59:14;;;;;;;5.93;3.33;;;15.00;99.90;;;;;;5037419;28;20988;-53
2021/10/27 17:01:43;;;;;;;7.47;3.70;;;15.00;99.90;;;;;;5038149;28;21015;-49
2021/10/27 17:04:10;;;;;;;7.10;4.10;;;15.00;99.90;;;;;;5037802;28;20460;-49
2021/10/27 17:06:40;;;;;;;7.40;3.80;;;15.00;99.90;;;;;;5037825;28;20761;-52
2021/10/27 17:09:07;;;;;;;4.97;3.20;;;15.00;99.90;;;;;;5028405;23;20984;-50
2021/10/27 17:11:34;;;;;;;15.63;7.93;;;15.00;99.90;;;;;;5017124;28;20461;-50
2021/10/27 17:14:01;;;;;;;9.20;4.50;;;15.00;99.90;;;;;;5036808;23;20586;-49
2021/10/27 17:16:31;;;;;;;10.53;6.53;;;15.00;99.90;;;;;;5037224;28;20440;-53
2021/10/27 17:18:59;;;;;;;9.63;5.07;;;15.10;99.90;;;;;;5053613;23;20490;-49